Aérodrome :
LOGIN :

S'inscrire | Disclaimer

   EN    FR    IT 

 










Légende :    VFR   VFR Marginal   IFR   IFR Intensif   IFR Très Intensif
Visi : 
Plafond : 
>= 8 km
>= 3000ft
5 à 8 km
1000 à 3000 ft
1500m à 5 km
500 à 1000 ft
800 à 1500m
200 à 500 ft
< 800m
< 200 ft
Symboles :   Orages  Brouillard  Fortes neiges  Fortes précipitations  Vent > 20 kt
SIGMETs :   Divers  Orages  Givrage  Turbulence  Onde Orograph.  Cendres Volcan.







- Altitude de l'aérodrome : 844 ft
- Code IATA : OSR


LKMT - Ostrava-Mosnov

DERNIER METAR :
  • 160600Z 01010KT CAVOK 22/16 Q1016 NOSIG

METARs EXPIRÉS :
  • 160530Z 01005KT CAVOK 22/16 Q1015 NOSIG
  • 160500Z 03006KT CAVOK 20/16 Q1015 NOSIG
  • 160430Z 02006KT CAVOK 20/16 Q1015 NOSIG
  • 160400Z 03004KT CAVOK 19/16 Q1015 NOSIG
  • 160330Z 06004KT 010V080 CAVOK 18/15 Q1015 NOSIG

TAF TAF LKMT
Valide du 16 à 06h jusqu'au 17 à 12h UTC


160500Z 1606/1712 06008KT 9999 SCT045
TEMPO 1606/1619 02014KT 9000 SHRA SCT040TCU
PROB30
TEMPO 1613/1618 02015G26KT 6000 SCT040CB
PROB30
TEMPO 1701/1706 5000 BR BKN010
Pas de NOTAMs connus pour ce terrain.
1 SIGMET publié pour la FIR Praha (LKAA) :
 
Orages noyés dans la masse
LKAA SIGMET 1 VALID 160505/160710 LKPW
LKAA PRAHA FIR EMBD TS OBS WI N5049 E01237 - N5001 E01344 - N4941 E01540 - N4916 E01408 - N4841 E01338 - N5011 E01131 - N5049 E01237 TOP FL330 MOV NNE NC=



MET'MAP, la Météo Aéronautique d'un coup d'oeil ! - Copyright ORBIFLY Décembre 2007 - Disclaimer

ORBIFLY MET'MAP TEAM :

Programmation & Développement : Alexandra Zaïnal
Conception & Développement : Baudouin d'Aumeries
Co-Programmation & Développement : Marc-Olivier Méhu
Soutien technique & logistique : Manuel Goepfert

Contact : metmap@orbifly.com




SOURCES & CREDITS :

   NOAA